Airfield :
LOGIN :

Register | Disclaimer

   EN    FR    IT 

 










Legend :    VFR   Marginal VFR   IFR   Intensive IFR   Very Intensive IFR
Visi :
Ceiling :
>= 8 km
>= 3000ft
5 to 8 km
1000 to 3000 ft
1500m to 5 km
500 to 1000 ft
800 to 1500m
200 to 500 ft
< 800m
< 200 ft
Symbols :   Thunderstorms  Fog  Heavy snow  Heavy precipitations  Wind > 20 kt
SIGMETs :     Misc.  Thunderstorms  Icing  Turbulence  Mountain Waves  Volcanic Ashes







- Airport Elevation : 16 ft
- IATA code : AAE


DABB - Annaba-Rabah Bitat

CURRENT METAR :
  • 160830Z 03005KT 9999 FEW020 26/16 Q1017

EXPIRED METARs :
  • 160800Z 00000KT 9999 FEW020 25/17 Q1017
  • 160730Z 24003KT 200V290 8000 FEW020 23/18 Q1017
  • 160700Z 24003KT 190V270 8000 FEW020 22/19 Q1017
  • 160630Z 23003KT 190V260 8000 FEW020 21/19 Q1017
  • 160600Z 23003KT 8000 FEW040 19/18 Q1017

TAF TAF DABB
Valid from the 16 at 06:00 until the 17 at 06:00 UTC


160500Z 1606/1706 28008KT 9999 FEW030
PROB40
TEMPO 1600/1609 2000 BR BKN010
PROB30
TEMPO 1606/1608 0400 FG BKN004
BECMG 1609/1611 02011KT
TEMPO 1613/1624 FEW023TCU
PROB40
TEMPO 1616/1703 5000 -TSRA FEW020CB
BECMG 1622/1624 28008KT
No reported NOTAMs for that airfield.



MET'MAP, your aeronautical weather chart ! - Copyright ORBIFLY December 2007 - Disclaimer

ORBIFLY MET'MAP TEAM :

Programming & Development : Alexandra Zaïnal
Concept & Development : Baudouin d'Aumeries
Co-Development & Prog : Marc-Olivier Méhu
Technical & hardware support : Manuel Goepfert

Contact : metmap@orbifly.com




SOURCES & CREDITS :

   NOAA